sensor_id;sensor_type;location;lat;lon;timestamp;P1;durP1;ratioP1;P2;durP2;ratioP2
74538;SDS011;66042;51.090;-115.340;2022-12-16T00:00:07;3.00;;;1.30;;
74538;SDS011;66042;51.090;-115.340;2022-12-16T00:02:35;3.00;;;1.50;;
74538;SDS011;66042;51.090;-115.340;2022-12-16T00:05:03;4.60;;;1.30;;
74538;SDS011;66042;51.090;-115.340;2022-12-16T00:07:30;3.00;;;1.90;;
74538;SDS011;66042;51.090;-115.340;2022-12-16T00:09:58;2.20;;;1.20;;
74538;SDS011;66042;51.090;-115.340;2022-12-16T00:12:25;3.80;;;1.20;;
74538;SDS011;66042;51.090;-115.340;2022-12-16T00:14:52;3.20;;;1.80;;
74538;SDS011;66042;51.090;-115.340;2022-12-16T00:17:20;6.80;;;2.30;;
74538;SDS011;66042;51.090;-115.340;2022-12-16T00:19:47;6.70;;;1.60;;
74538;SDS011;66042;51.090;-115.340;2022-12-16T00:22:14;4.50;;;2.00;;
74538;SDS011;66042;51.090;-115.340;2022-12-16T00:24:41;3.10;;;1.50;;
74538;SDS011;66042;51.090;-115.340;2022-12-16T00:27:08;3.10;;;1.40;;
74538;SDS011;66042;51.090;-115.340;2022-12-16T00:29:35;3.50;;;1.80;;
74538;SDS011;66042;51.090;-115.340;2022-12-16T00:32:02;5.00;;;2.10;;
74538;SDS011;66042;51.090;-115.340;2022-12-16T00:34:31;2.50;;;1.40;;
74538;SDS011;66042;51.090;-115.340;2022-12-16T00:36:58;2.50;;;1.50;;
74538;SDS011;66042;51.090;-115.340;2022-12-16T00:39:25;3.10;;;1.80;;
74538;SDS011;66042;51.090;-115.340;2022-12-16T00:41:52;6.60;;;2.20;;
74538;SDS011;66042;51.090;-115.340;2022-12-16T00:44:19;2.40;;;1.50;;
74538;SDS011;66042;51.090;-115.340;2022-12-16T00:46:47;6.10;;;2.30;;
74538;SDS011;66042;51.090;-115.340;2022-12-16T00:49:14;3.30;;;1.80;;
74538;SDS011;66042;51.090;-115.340;2022-12-16T00:51:41;2.80;;;1.90;;
74538;SDS011;66042;51.090;-115.340;2022-12-16T00:54:08;8.10;;;2.70;;
74538;SDS011;66042;51.090;-115.340;2022-12-16T00:56:35;3.70;;;1.70;;
74538;SDS011;66042;51.090;-115.340;2022-12-16T00:59:02;2.30;;;1.20;;
74538;SDS011;66042;51.090;-115.340;2022-12-16T01:01:29;2.20;;;2.00;;
74538;SDS011;66042;51.090;-115.340;2022-12-16T01:03:56;1.70;;;1.30;;
74538;SDS011;66042;51.090;-115.340;2022-12-16T01:06:23;2.90;;;1.60;;
74538;SDS011;66042;51.090;-115.340;2022-12-16T01:08:50;4.20;;;2.10;;
74538;SDS011;66042;51.090;-115.340;2022-12-16T01:11:19;5.80;;;1.90;;
74538;SDS011;66042;51.090;-115.340;2022-12-16T01:13:49;3.20;;;1.50;;
74538;SDS011;66042;51.090;-115.340;2022-12-16T01:16:17;4.50;;;1.60;;
74538;SDS011;66042;51.090;-115.340;2022-12-16T01:18:44;5.00;;;2.00;;
74538;SDS011;66042;51.090;-115.340;2022-12-16T01:21:13;3.50;;;1.80;;
74538;SDS011;66042;51.090;-115.340;2022-12-16T01:23:41;3.50;;;1.40;;
74538;SDS011;66042;51.090;-115.340;2022-12-16T01:26:14;2.50;;;1.30;;
74538;SDS011;66042;51.090;-115.340;2022-12-16T01:28:43;3.10;;;1.80;;
74538;SDS011;66042;51.090;-115.340;2022-12-16T01:31:14;7.30;;;1.30;;
74538;SDS011;66042;51.090;-115.340;2022-12-16T01:33:43;3.60;;;1.60;;
74538;SDS011;66042;51.090;-115.340;2022-12-16T01:36:10;2.20;;;1.30;;
74538;SDS011;66042;51.090;-115.340;2022-12-16T01:38:41;5.20;;;1.80;;
74538;SDS011;66042;51.090;-115.340;2022-12-16T01:41:14;3.10;;;1.30;;
74538;SDS011;66042;51.090;-115.340;2022-12-16T01:43:45;4.70;;;2.00;;
74538;SDS011;66042;51.090;-115.340;2022-12-16T01:51:43;3.60;;;1.70;;
74538;SDS011;66042;51.090;-115.340;2022-12-16T01:57:05;3.80;;;2.00;;
74538;SDS011;66042;51.090;-115.340;2022-12-16T01:59:39;2.10;;;1.50;;
74538;SDS011;66042;51.090;-115.340;2022-12-16T02:02:10;5.50;;;2.50;;
74538;SDS011;66042;51.090;-115.340;2022-12-16T02:04:39;11.20;;;2.70;;
74538;SDS011;66042;51.090;-115.340;2022-12-16T02:07:26;2.50;;;1.70;;
74538;SDS011;66042;51.090;-115.340;2022-12-16T02:09:54;4.70;;;2.10;;
74538;SDS011;66042;51.090;-115.340;2022-12-16T02:12:30;4.60;;;2.00;;
74538;SDS011;66042;51.090;-115.340;2022-12-16T02:21:40;3.80;;;2.00;;
74538;SDS011;66042;51.090;-115.340;2022-12-16T02:24:38;8.50;;;2.60;;
74538;SDS011;66042;51.090;-115.340;2022-12-16T02:28:08;3.30;;;1.90;;
74538;SDS011;66042;51.090;-115.340;2022-12-16T02:39:12;2.10;;;1.60;;
74538;SDS011;66042;51.090;-115.340;2022-12-16T02:44:39;2.70;;;2.00;;
74538;SDS011;66042;51.090;-115.340;2022-12-16T02:47:23;13.50;;;1.40;;
74538;SDS011;66042;51.090;-115.340;2022-12-16T02:49:52;3.80;;;2.20;;
74538;SDS011;66042;51.090;-115.340;2022-12-16T02:52:26;3.30;;;2.40;;
74538;SDS011;66042;51.090;-115.340;2022-12-16T02:55:01;3.10;;;1.80;;
74538;SDS011;66042;51.090;-115.340;2022-12-16T02:57:38;3.30;;;1.70;;
74538;SDS011;66042;51.090;-115.340;2022-12-16T03:00:21;3.00;;;1.70;;
74538;SDS011;66042;51.090;-115.340;2022-12-16T03:02:59;3.00;;;2.20;;
74538;SDS011;66042;51.090;-115.340;2022-12-16T03:05:37;9.70;;;3.00;;
74538;SDS011;66042;51.090;-115.340;2022-12-16T03:08:12;2.20;;;1.40;;
74538;SDS011;66042;51.090;-115.340;2022-12-16T03:10:55;9.20;;;1.80;;
74538;SDS011;66042;51.090;-115.340;2022-12-16T03:13:28;3.20;;;1.80;;
74538;SDS011;66042;51.090;-115.340;2022-12-16T03:16:02;3.00;;;1.70;;
74538;SDS011;66042;51.090;-115.340;2022-12-16T03:18:33;1.90;;;1.50;;
74538;SDS011;66042;51.090;-115.340;2022-12-16T03:21:05;2.10;;;1.20;;
74538;SDS011;66042;51.090;-115.340;2022-12-16T03:23:43;6.00;;;2.10;;
74538;SDS011;66042;51.090;-115.340;2022-12-16T03:26:18;2.10;;;1.50;;
74538;SDS011;66042;51.090;-115.340;2022-12-16T03:28:54;8.40;;;2.40;;
74538;SDS011;66042;51.090;-115.340;2022-12-16T03:32:19;2.80;;;2.40;;
74538;SDS011;66042;51.090;-115.340;2022-12-16T03:34:38;4.90;;;2.10;;
74538;SDS011;66042;51.090;-115.340;2022-12-16T03:37:11;2.60;;;1.40;;
74538;SDS011;66042;51.090;-115.340;2022-12-16T03:39:54;3.70;;;2.00;;
74538;SDS011;66042;51.090;-115.340;2022-12-16T03:42:24;4.00;;;2.30;;
74538;SDS011;66042;51.090;-115.340;2022-12-16T03:44:52;4.00;;;1.90;;
74538;SDS011;66042;51.090;-115.340;2022-12-16T03:47:26;2.10;;;1.70;;
74538;SDS011;66042;51.090;-115.340;2022-12-16T03:49:54;3.70;;;1.70;;
74538;SDS011;66042;51.090;-115.340;2022-12-16T03:52:21;3.20;;;1.20;;
74538;SDS011;66042;51.090;-115.340;2022-12-16T03:54:49;3.00;;;1.70;;
74538;SDS011;66042;51.090;-115.340;2022-12-16T03:57:16;2.70;;;1.40;;
74538;SDS011;66042;51.090;-115.340;2022-12-16T03:59:43;2.80;;;1.10;;
74538;SDS011;66042;51.090;-115.340;2022-12-16T04:02:09;1.60;;;1.20;;
74538;SDS011;66042;51.090;-115.340;2022-12-16T04:04:36;2.20;;;1.40;;
74538;SDS011;66042;51.090;-115.340;2022-12-16T04:07:07;1.40;;;1.30;;
74538;SDS011;66042;51.090;-115.340;2022-12-16T04:09:47;2.50;;;1.30;;
74538;SDS011;66042;51.090;-115.340;2022-12-16T04:12:16;2.00;;;1.30;;
74538;SDS011;66042;51.090;-115.340;2022-12-16T04:15:02;1.50;;;1.20;;
74538;SDS011;66042;51.090;-115.340;2022-12-16T04:17:48;1.60;;;0.80;;
74538;SDS011;66042;51.090;-115.340;2022-12-16T04:20:36;1.20;;;1.10;;
74538;SDS011;66042;51.090;-115.340;2022-12-16T04:23:25;1.10;;;1.00;;
74538;SDS011;66042;51.090;-115.340;2022-12-16T04:26:14;2.20;;;1.10;;
74538;SDS011;66042;51.090;-115.340;2022-12-16T04:28:41;0.90;;;0.80;;
74538;SDS011;66042;51.090;-115.340;2022-12-16T04:31:08;1.50;;;1.30;;
74538;SDS011;66042;51.090;-115.340;2022-12-16T04:33:35;1.70;;;1.10;;
74538;SDS011;66042;51.090;-115.340;2022-12-16T04:36:20;1.40;;;1.30;;
74538;SDS011;66042;51.090;-115.340;2022-12-16T04:39:05;1.00;;;0.80;;
74538;SDS011;66042;51.090;-115.340;2022-12-16T04:41:54;1.30;;;1.10;;
74538;SDS011;66042;51.090;-115.340;2022-12-16T04:44:39;1.00;;;0.70;;
74538;SDS011;66042;51.090;-115.340;2022-12-16T04:47:24;0.90;;;0.70;;
74538;SDS011;66042;51.090;-115.340;2022-12-16T04:50:09;1.20;;;1.10;;
74538;SDS011;66042;51.090;-115.340;2022-12-16T04:52:55;1.10;;;0.90;;
74538;SDS011;66042;51.090;-115.340;2022-12-16T04:55:41;1.30;;;1.10;;
74538;SDS011;66042;51.090;-115.340;2022-12-16T04:58:26;2.90;;;0.70;;
74538;SDS011;66042;51.090;-115.340;2022-12-16T05:01:13;1.50;;;0.80;;
74538;SDS011;66042;51.090;-115.340;2022-12-16T05:03:58;1.80;;;1.10;;
74538;SDS011;66042;51.090;-115.340;2022-12-16T05:06:43;1.30;;;0.90;;
74538;SDS011;66042;51.090;-115.340;2022-12-16T05:09:28;1.20;;;0.90;;
74538;SDS011;66042;51.090;-115.340;2022-12-16T05:12:13;1.80;;;1.10;;
74538;SDS011;66042;51.090;-115.340;2022-12-16T05:14:58;1.30;;;1.00;;
74538;SDS011;66042;51.090;-115.340;2022-12-16T05:17:43;1.30;;;1.00;;
74538;SDS011;66042;51.090;-115.340;2022-12-16T05:20:28;1.20;;;1.10;;
74538;SDS011;66042;51.090;-115.340;2022-12-16T05:23:13;1.00;;;0.70;;
74538;SDS011;66042;51.090;-115.340;2022-12-16T05:25:58;1.60;;;1.30;;
74538;SDS011;66042;51.090;-115.340;2022-12-16T05:28:43;1.00;;;0.80;;
74538;SDS011;66042;51.090;-115.340;2022-12-16T05:31:28;1.30;;;0.90;;
74538;SDS011;66042;51.090;-115.340;2022-12-16T05:34:13;1.20;;;0.80;;
74538;SDS011;66042;51.090;-115.340;2022-12-16T05:36:58;1.10;;;0.90;;
74538;SDS011;66042;51.090;-115.340;2022-12-16T05:39:44;1.10;;;1.00;;
74538;SDS011;66042;51.090;-115.340;2022-12-16T05:42:28;1.30;;;1.20;;
74538;SDS011;66042;51.090;-115.340;2022-12-16T05:45:13;2.00;;;1.30;;
74538;SDS011;66042;51.090;-115.340;2022-12-16T05:47:59;1.70;;;1.10;;
74538;SDS011;66042;51.090;-115.340;2022-12-16T05:50:44;1.10;;;0.80;;
74538;SDS011;66042;51.090;-115.340;2022-12-16T05:53:29;1.40;;;1.10;;
74538;SDS011;66042;51.090;-115.340;2022-12-16T05:56:15;1.40;;;1.10;;
74538;SDS011;66042;51.090;-115.340;2022-12-16T05:59:01;1.60;;;1.00;;
74538;SDS011;66042;51.090;-115.340;2022-12-16T06:01:46;1.10;;;0.80;;
74538;SDS011;66042;51.090;-115.340;2022-12-16T06:04:31;1.40;;;1.20;;
74538;SDS011;66042;51.090;-115.340;2022-12-16T06:07:16;0.90;;;0.70;;
74538;SDS011;66042;51.090;-115.340;2022-12-16T06:10:01;1.40;;;1.20;;
74538;SDS011;66042;51.090;-115.340;2022-12-16T06:12:47;1.20;;;1.10;;
74538;SDS011;66042;51.090;-115.340;2022-12-16T06:15:33;1.00;;;0.80;;
74538;SDS011;66042;51.090;-115.340;2022-12-16T06:18:20;1.30;;;0.80;;
74538;SDS011;66042;51.090;-115.340;2022-12-16T06:21:05;1.20;;;1.10;;
74538;SDS011;66042;51.090;-115.340;2022-12-16T06:23:51;2.10;;;1.20;;
74538;SDS011;66042;51.090;-115.340;2022-12-16T06:26:36;1.10;;;0.90;;
74538;SDS011;66042;51.090;-115.340;2022-12-16T06:29:21;1.10;;;0.80;;
74538;SDS011;66042;51.090;-115.340;2022-12-16T06:32:07;1.10;;;0.90;;
74538;SDS011;66042;51.090;-115.340;2022-12-16T06:34:52;1.30;;;1.20;;
74538;SDS011;66042;51.090;-115.340;2022-12-16T06:37:37;1.20;;;0.80;;
74538;SDS011;66042;51.090;-115.340;2022-12-16T06:40:22;1.00;;;0.80;;
74538;SDS011;66042;51.090;-115.340;2022-12-16T06:43:07;1.30;;;1.20;;
74538;SDS011;66042;51.090;-115.340;2022-12-16T06:45:52;1.00;;;0.70;;
74538;SDS011;66042;51.090;-115.340;2022-12-16T06:48:37;1.00;;;0.80;;
74538;SDS011;66042;51.090;-115.340;2022-12-16T06:51:22;1.20;;;0.90;;
74538;SDS011;66042;51.090;-115.340;2022-12-16T06:54:18;1.00;;;0.80;;
74538;SDS011;66042;51.090;-115.340;2022-12-16T06:57:03;0.70;;;0.50;;
74538;SDS011;66042;51.090;-115.340;2022-12-16T06:59:49;1.10;;;1.00;;
74538;SDS011;66042;51.090;-115.340;2022-12-16T07:02:34;1.00;;;0.80;;
74538;SDS011;66042;51.090;-115.340;2022-12-16T07:05:20;1.60;;;1.50;;
74538;SDS011;66042;51.090;-115.340;2022-12-16T07:08:07;0.90;;;0.70;;
74538;SDS011;66042;51.090;-115.340;2022-12-16T07:10:52;1.30;;;1.20;;
74538;SDS011;66042;51.090;-115.340;2022-12-16T07:13:37;0.90;;;0.80;;
74538;SDS011;66042;51.090;-115.340;2022-12-16T07:16:22;1.00;;;0.70;;
74538;SDS011;66042;51.090;-115.340;2022-12-16T07:19:07;1.50;;;1.10;;
74538;SDS011;66042;51.090;-115.340;2022-12-16T07:21:52;1.40;;;1.30;;
74538;SDS011;66042;51.090;-115.340;2022-12-16T07:24:37;0.90;;;0.60;;
74538;SDS011;66042;51.090;-115.340;2022-12-16T07:27:23;1.40;;;1.10;;
74538;SDS011;66042;51.090;-115.340;2022-12-16T07:30:09;1.10;;;0.90;;
74538;SDS011;66042;51.090;-115.340;2022-12-16T07:32:55;1.60;;;1.50;;
74538;SDS011;66042;51.090;-115.340;2022-12-16T07:35:44;1.20;;;1.00;;
74538;SDS011;66042;51.090;-115.340;2022-12-16T07:38:30;1.80;;;0.90;;
74538;SDS011;66042;51.090;-115.340;2022-12-16T07:41:15;1.20;;;1.00;;
74538;SDS011;66042;51.090;-115.340;2022-12-16T07:44:00;1.30;;;1.10;;
74538;SDS011;66042;51.090;-115.340;2022-12-16T07:46:45;1.30;;;1.20;;
74538;SDS011;66042;51.090;-115.340;2022-12-16T07:49:30;1.10;;;0.90;;
74538;SDS011;66042;51.090;-115.340;2022-12-16T07:52:16;2.50;;;1.00;;
74538;SDS011;66042;51.090;-115.340;2022-12-16T07:55:01;1.10;;;0.90;;
74538;SDS011;66042;51.090;-115.340;2022-12-16T07:57:50;1.50;;;1.20;;
74538;SDS011;66042;51.090;-115.340;2022-12-16T08:00:35;1.60;;;1.20;;
74538;SDS011;66042;51.090;-115.340;2022-12-16T08:03:20;1.30;;;1.00;;
74538;SDS011;66042;51.090;-115.340;2022-12-16T08:06:06;1.20;;;1.00;;
74538;SDS011;66042;51.090;-115.340;2022-12-16T08:08:51;1.10;;;0.70;;
74538;SDS011;66042;51.090;-115.340;2022-12-16T08:11:36;1.20;;;0.90;;
74538;SDS011;66042;51.090;-115.340;2022-12-16T08:14:22;1.30;;;1.10;;
74538;SDS011;66042;51.090;-115.340;2022-12-16T08:17:14;1.10;;;1.00;;
74538;SDS011;66042;51.090;-115.340;2022-12-16T08:20:00;1.00;;;0.80;;
74538;SDS011;66042;51.090;-115.340;2022-12-16T08:22:45;1.30;;;1.20;;
74538;SDS011;66042;51.090;-115.340;2022-12-16T08:25:30;1.10;;;1.00;;
74538;SDS011;66042;51.090;-115.340;2022-12-16T08:28:15;1.20;;;1.10;;
74538;SDS011;66042;51.090;-115.340;2022-12-16T08:31:01;1.40;;;1.30;;
74538;SDS011;66042;51.090;-115.340;2022-12-16T08:33:46;1.10;;;0.80;;
74538;SDS011;66042;51.090;-115.340;2022-12-16T08:36:31;1.00;;;0.70;;
74538;SDS011;66042;51.090;-115.340;2022-12-16T08:39:16;1.40;;;0.90;;
74538;SDS011;66042;51.090;-115.340;2022-12-16T08:42:01;1.20;;;1.10;;
74538;SDS011;66042;51.090;-115.340;2022-12-16T08:44:47;1.00;;;0.90;;
74538;SDS011;66042;51.090;-115.340;2022-12-16T08:47:32;1.20;;;1.10;;
74538;SDS011;66042;51.090;-115.340;2022-12-16T08:50:17;1.10;;;0.90;;
74538;SDS011;66042;51.090;-115.340;2022-12-16T08:53:03;1.30;;;1.10;;
74538;SDS011;66042;51.090;-115.340;2022-12-16T08:55:48;1.30;;;1.20;;
74538;SDS011;66042;51.090;-115.340;2022-12-16T08:58:34;1.10;;;1.00;;
74538;SDS011;66042;51.090;-115.340;2022-12-16T09:01:19;1.40;;;1.10;;
74538;SDS011;66042;51.090;-115.340;2022-12-16T09:04:04;0.90;;;0.70;;
74538;SDS011;66042;51.090;-115.340;2022-12-16T09:06:50;1.00;;;0.80;;
74538;SDS011;66042;51.090;-115.340;2022-12-16T09:09:35;1.00;;;0.90;;
74538;SDS011;66042;51.090;-115.340;2022-12-16T09:12:20;1.80;;;1.10;;
74538;SDS011;66042;51.090;-115.340;2022-12-16T09:15:06;1.60;;;1.00;;
74538;SDS011;66042;51.090;-115.340;2022-12-16T09:18:08;1.10;;;0.90;;
74538;SDS011;66042;51.090;-115.340;2022-12-16T09:20:53;1.10;;;0.90;;
74538;SDS011;66042;51.090;-115.340;2022-12-16T09:23:38;1.30;;;1.00;;
74538;SDS011;66042;51.090;-115.340;2022-12-16T09:26:23;1.20;;;1.10;;
74538;SDS011;66042;51.090;-115.340;2022-12-16T09:29:09;1.20;;;1.10;;
74538;SDS011;66042;51.090;-115.340;2022-12-16T09:31:54;1.30;;;0.80;;
74538;SDS011;66042;51.090;-115.340;2022-12-16T09:34:39;1.10;;;0.90;;
74538;SDS011;66042;51.090;-115.340;2022-12-16T09:37:25;1.40;;;1.20;;
74538;SDS011;66042;51.090;-115.340;2022-12-16T09:40:15;1.00;;;0.80;;
74538;SDS011;66042;51.090;-115.340;2022-12-16T09:43:23;1.10;;;0.80;;
74538;SDS011;66042;51.090;-115.340;2022-12-16T09:46:37;1.00;;;0.90;;
74538;SDS011;66042;51.090;-115.340;2022-12-16T09:49:51;1.10;;;0.80;;
74538;SDS011;66042;51.090;-115.340;2022-12-16T09:52:43;0.90;;;0.60;;
74538;SDS011;66042;51.090;-115.340;2022-12-16T09:55:40;1.30;;;1.10;;
74538;SDS011;66042;51.090;-115.340;2022-12-16T09:58:41;1.30;;;1.20;;
74538;SDS011;66042;51.090;-115.340;2022-12-16T10:01:36;1.70;;;0.80;;
74538;SDS011;66042;51.090;-115.340;2022-12-16T10:04:23;1.20;;;1.00;;
74538;SDS011;66042;51.090;-115.340;2022-12-16T10:07:17;1.00;;;0.90;;
74538;SDS011;66042;51.090;-115.340;2022-12-16T10:10:22;1.20;;;0.90;;
74538;SDS011;66042;51.090;-115.340;2022-12-16T10:13:28;1.00;;;0.90;;
74538;SDS011;66042;51.090;-115.340;2022-12-16T10:26:18;1.60;;;1.40;;
74538;SDS011;66042;51.090;-115.340;2022-12-16T10:29:37;1.50;;;0.60;;
74538;SDS011;66042;51.090;-115.340;2022-12-16T10:32:45;1.10;;;0.80;;
74538;SDS011;66042;51.090;-115.340;2022-12-16T10:35:50;1.00;;;0.80;;
74538;SDS011;66042;51.090;-115.340;2022-12-16T10:41:44;1.10;;;1.00;;
74538;SDS011;66042;51.090;-115.340;2022-12-16T10:44:48;1.10;;;0.80;;
74538;SDS011;66042;51.090;-115.340;2022-12-16T10:47:38;1.50;;;1.10;;
74538;SDS011;66042;51.090;-115.340;2022-12-16T10:50:24;0.90;;;0.70;;
74538;SDS011;66042;51.090;-115.340;2022-12-16T10:53:24;1.00;;;0.70;;
74538;SDS011;66042;51.090;-115.340;2022-12-16T10:59:44;1.20;;;1.00;;
74538;SDS011;66042;51.090;-115.340;2022-12-16T11:02:29;1.00;;;0.70;;
74538;SDS011;66042;51.090;-115.340;2022-12-16T11:05:34;1.20;;;1.10;;
74538;SDS011;66042;51.090;-115.340;2022-12-16T11:08:36;1.50;;;1.40;;
74538;SDS011;66042;51.090;-115.340;2022-12-16T11:11:29;1.30;;;1.20;;
74538;SDS011;66042;51.090;-115.340;2022-12-16T11:23:22;1.30;;;1.10;;
74538;SDS011;66042;51.090;-115.340;2022-12-16T11:26:17;1.30;;;0.80;;
74538;SDS011;66042;51.090;-115.340;2022-12-16T11:29:05;2.90;;;1.30;;
74538;SDS011;66042;51.090;-115.340;2022-12-16T11:34:56;1.10;;;1.00;;
74538;SDS011;66042;51.090;-115.340;2022-12-16T11:37:44;1.00;;;0.80;;
74538;SDS011;66042;51.090;-115.340;2022-12-16T11:40:30;1.00;;;0.70;;
74538;SDS011;66042;51.090;-115.340;2022-12-16T11:43:18;1.30;;;0.90;;
74538;SDS011;66042;51.090;-115.340;2022-12-16T11:46:09;1.40;;;1.30;;
74538;SDS011;66042;51.090;-115.340;2022-12-16T11:49:07;1.20;;;0.70;;
74538;SDS011;66042;51.090;-115.340;2022-12-16T11:52:03;1.20;;;1.00;;
74538;SDS011;66042;51.090;-115.340;2022-12-16T11:58:17;1.10;;;0.90;;
74538;SDS011;66042;51.090;-115.340;2022-12-16T12:01:44;1.00;;;0.70;;
74538;SDS011;66042;51.090;-115.340;2022-12-16T12:04:39;1.00;;;0.90;;
74538;SDS011;66042;51.090;-115.340;2022-12-16T12:07:33;1.30;;;1.10;;
74538;SDS011;66042;51.090;-115.340;2022-12-16T12:10:42;1.10;;;0.90;;
74538;SDS011;66042;51.090;-115.340;2022-12-16T12:23:17;1.10;;;0.90;;
74538;SDS011;66042;51.090;-115.340;2022-12-16T12:26:25;1.40;;;1.20;;
74538;SDS011;66042;51.090;-115.340;2022-12-16T12:29:32;1.00;;;0.80;;
74538;SDS011;66042;51.090;-115.340;2022-12-16T12:49:04;1.00;;;0.80;;
74538;SDS011;66042;51.090;-115.340;2022-12-16T12:55:39;1.50;;;1.40;;
74538;SDS011;66042;51.090;-115.340;2022-12-16T12:58:35;1.10;;;1.00;;
74538;SDS011;66042;51.090;-115.340;2022-12-16T13:01:21;1.30;;;0.90;;
74538;SDS011;66042;51.090;-115.340;2022-12-16T13:04:18;1.60;;;0.90;;
74538;SDS011;66042;51.090;-115.340;2022-12-16T13:07:05;1.30;;;1.20;;
74538;SDS011;66042;51.090;-115.340;2022-12-16T13:10:31;1.50;;;1.40;;
74538;SDS011;66042;51.090;-115.340;2022-12-16T13:13:30;1.40;;;0.90;;
74538;SDS011;66042;51.090;-115.340;2022-12-16T13:16:56;0.90;;;0.70;;
74538;SDS011;66042;51.090;-115.340;2022-12-16T13:19:42;1.20;;;0.90;;
74538;SDS011;66042;51.090;-115.340;2022-12-16T13:25:50;4.00;;;1.10;;
74538;SDS011;66042;51.090;-115.340;2022-12-16T13:28:40;1.20;;;0.90;;
74538;SDS011;66042;51.090;-115.340;2022-12-16T13:32:02;1.40;;;1.00;;
74538;SDS011;66042;51.090;-115.340;2022-12-16T13:37:57;1.30;;;0.80;;
74538;SDS011;66042;51.090;-115.340;2022-12-16T13:44:09;1.20;;;1.10;;
74538;SDS011;66042;51.090;-115.340;2022-12-16T13:46:58;1.10;;;0.70;;
74538;SDS011;66042;51.090;-115.340;2022-12-16T13:49:47;1.50;;;1.40;;
74538;SDS011;66042;51.090;-115.340;2022-12-16T13:56:00;1.20;;;1.10;;
74538;SDS011;66042;51.090;-115.340;2022-12-16T13:58:59;1.30;;;0.90;;
74538;SDS011;66042;51.090;-115.340;2022-12-16T14:01:53;1.30;;;1.10;;
74538;SDS011;66042;51.090;-115.340;2022-12-16T14:04:46;1.00;;;0.80;;
74538;SDS011;66042;51.090;-115.340;2022-12-16T14:07:37;1.40;;;1.10;;
74538;SDS011;66042;51.090;-115.340;2022-12-16T14:10:34;1.30;;;1.00;;
74538;SDS011;66042;51.090;-115.340;2022-12-16T14:13:30;1.30;;;1.20;;
74538;SDS011;66042;51.090;-115.340;2022-12-16T14:23:05;1.20;;;1.00;;
74538;SDS011;66042;51.090;-115.340;2022-12-16T14:25:57;1.30;;;1.00;;
74538;SDS011;66042;51.090;-115.340;2022-12-16T14:28:45;2.00;;;1.20;;
74538;SDS011;66042;51.090;-115.340;2022-12-16T14:31:41;1.40;;;1.10;;
74538;SDS011;66042;51.090;-115.340;2022-12-16T14:34:30;1.60;;;1.00;;
74538;SDS011;66042;51.090;-115.340;2022-12-16T14:37:19;1.10;;;0.80;;
74538;SDS011;66042;51.090;-115.340;2022-12-16T14:43:18;1.10;;;1.00;;
74538;SDS011;66042;51.090;-115.340;2022-12-16T14:46:26;1.50;;;0.80;;
74538;SDS011;66042;51.090;-115.340;2022-12-16T14:49:22;1.30;;;1.00;;
74538;SDS011;66042;51.090;-115.340;2022-12-16T14:52:26;1.80;;;1.10;;
74538;SDS011;66042;51.090;-115.340;2022-12-16T14:55:25;2.60;;;1.20;;
74538;SDS011;66042;51.090;-115.340;2022-12-16T14:58:20;1.60;;;1.20;;
74538;SDS011;66042;51.090;-115.340;2022-12-16T15:01:21;1.30;;;1.10;;
74538;SDS011;66042;51.090;-115.340;2022-12-16T15:04:18;1.50;;;0.80;;
74538;SDS011;66042;51.090;-115.340;2022-12-16T15:07:07;1.20;;;1.00;;
74538;SDS011;66042;51.090;-115.340;2022-12-16T15:09:58;1.20;;;1.00;;
74538;SDS011;66042;51.090;-115.340;2022-12-16T15:12:45;1.50;;;1.40;;
74538;SDS011;66042;51.090;-115.340;2022-12-16T15:15:35;1.00;;;0.70;;
74538;SDS011;66042;51.090;-115.340;2022-12-16T15:18:41;1.60;;;1.00;;
74538;SDS011;66042;51.090;-115.340;2022-12-16T15:21:32;1.80;;;1.20;;
74538;SDS011;66042;51.090;-115.340;2022-12-16T15:24:20;1.50;;;1.10;;
74538;SDS011;66042;51.090;-115.340;2022-12-16T15:27:35;1.50;;;1.30;;
74538;SDS011;66042;51.090;-115.340;2022-12-16T15:30:35;1.20;;;1.00;;
74538;SDS011;66042;51.090;-115.340;2022-12-16T15:33:29;1.00;;;0.60;;
74538;SDS011;66042;51.090;-115.340;2022-12-16T15:36:35;1.30;;;1.10;;
74538;SDS011;66042;51.090;-115.340;2022-12-16T15:39:25;1.50;;;1.20;;
74538;SDS011;66042;51.090;-115.340;2022-12-16T15:42:21;1.90;;;1.10;;
74538;SDS011;66042;51.090;-115.340;2022-12-16T15:45:26;2.60;;;1.10;;
74538;SDS011;66042;51.090;-115.340;2022-12-16T15:54:04;1.40;;;1.00;;
74538;SDS011;66042;51.090;-115.340;2022-12-16T15:57:32;1.40;;;1.20;;
74538;SDS011;66042;51.090;-115.340;2022-12-16T16:00:24;1.30;;;1.00;;
74538;SDS011;66042;51.090;-115.340;2022-12-16T16:06:25;1.60;;;1.50;;
74538;SDS011;66042;51.090;-115.340;2022-12-16T16:09:23;1.70;;;1.50;;
74538;SDS011;66042;51.090;-115.340;2022-12-16T16:12:15;1.40;;;1.10;;
74538;SDS011;66042;51.090;-115.340;2022-12-16T16:15:04;0.90;;;0.70;;
74538;SDS011;66042;51.090;-115.340;2022-12-16T16:18:17;1.40;;;1.10;;
74538;SDS011;66042;51.090;-115.340;2022-12-16T16:21:02;1.50;;;0.80;;
74538;SDS011;66042;51.090;-115.340;2022-12-16T16:23:48;1.90;;;1.70;;
74538;SDS011;66042;51.090;-115.340;2022-12-16T16:26:33;1.50;;;1.30;;
74538;SDS011;66042;51.090;-115.340;2022-12-16T16:29:18;1.10;;;1.00;;
74538;SDS011;66042;51.090;-115.340;2022-12-16T16:32:03;1.40;;;0.90;;
74538;SDS011;66042;51.090;-115.340;2022-12-16T16:34:50;1.20;;;0.90;;
74538;SDS011;66042;51.090;-115.340;2022-12-16T16:37:35;1.50;;;1.00;;
74538;SDS011;66042;51.090;-115.340;2022-12-16T16:43:17;2.10;;;1.00;;
74538;SDS011;66042;51.090;-115.340;2022-12-16T16:46:28;1.10;;;0.90;;
74538;SDS011;66042;51.090;-115.340;2022-12-16T16:52:17;1.30;;;1.00;;
74538;SDS011;66042;51.090;-115.340;2022-12-16T16:55:05;1.20;;;0.90;;
74538;SDS011;66042;51.090;-115.340;2022-12-16T16:57:53;1.30;;;0.90;;
74538;SDS011;66042;51.090;-115.340;2022-12-16T17:00:39;1.30;;;0.90;;
74538;SDS011;66042;51.090;-115.340;2022-12-16T17:03:24;1.70;;;1.20;;
74538;SDS011;66042;51.090;-115.340;2022-12-16T17:06:09;1.40;;;1.20;;
74538;SDS011;66042;51.090;-115.340;2022-12-16T17:08:54;0.80;;;0.50;;
74538;SDS011;66042;51.090;-115.340;2022-12-16T17:11:39;1.20;;;0.90;;
74538;SDS011;66042;51.090;-115.340;2022-12-16T17:14:25;1.10;;;1.00;;
74538;SDS011;66042;51.090;-115.340;2022-12-16T17:17:11;1.20;;;0.90;;
74538;SDS011;66042;51.090;-115.340;2022-12-16T17:19:56;1.10;;;1.00;;
74538;SDS011;66042;51.090;-115.340;2022-12-16T17:22:42;1.20;;;1.00;;
74538;SDS011;66042;51.090;-115.340;2022-12-16T17:25:27;2.00;;;1.20;;
74538;SDS011;66042;51.090;-115.340;2022-12-16T17:28:12;1.20;;;0.90;;
74538;SDS011;66042;51.090;-115.340;2022-12-16T17:30:57;1.10;;;0.60;;
74538;SDS011;66042;51.090;-115.340;2022-12-16T17:33:42;1.40;;;1.30;;
74538;SDS011;66042;51.090;-115.340;2022-12-16T17:36:28;1.30;;;0.70;;
74538;SDS011;66042;51.090;-115.340;2022-12-16T17:39:15;1.00;;;0.70;;
74538;SDS011;66042;51.090;-115.340;2022-12-16T17:42:00;0.90;;;0.70;;
74538;SDS011;66042;51.090;-115.340;2022-12-16T17:44:46;1.20;;;0.90;;
74538;SDS011;66042;51.090;-115.340;2022-12-16T17:47:32;1.20;;;0.90;;
74538;SDS011;66042;51.090;-115.340;2022-12-16T17:50:17;1.60;;;1.00;;
74538;SDS011;66042;51.090;-115.340;2022-12-16T17:53:02;1.00;;;0.70;;
74538;SDS011;66042;51.090;-115.340;2022-12-16T17:55:48;1.00;;;0.70;;
74538;SDS011;66042;51.090;-115.340;2022-12-16T17:58:35;1.30;;;0.80;;